Terminal Aerodrome Forecast
Issued by NWS

Home | Current Version | Previous Version | Text Only | Print | Product List | Glossary Off
Versions: 1 2 3 4 5 6 7 8 9 10 11 12 13 14 15 16 17 18 19 20

675
FTUS43 KGRB 170352 AAA
TAFCWA
TAF AMD
KCWA 170352Z 1704/1724 13008KT P6SM SCT020 BKN100
      TEMPO 1706/1710 BKN020
     FM171000 14008G15KT P6SM BKN018 BKN090
     FM171500 16010G20KT P6SM -FZDZ OVC015
     FM171700 17009KT P6SM -DZ OVC015
     FM171800 17008KT P6SM -RA OVC010
     FM172000 17007KT P6SM -RA OVC008
     FM172200 17006KT P6SM -RA OVC003=

USA.gov is the U.S. government's official web portal to all federal, state and local government web resources and services.